DL1223 KLAX-KSAN
Flight info
| Callsign | DL1223 |
|---|---|
| Flight time | N/A |
| Altitude | 26000 |
| Route | ORCKA2 MZB |
| Aircraft | A339/H-SDE3FGHIRWXY/L |
Departure
| Time | 2026-04-24 03:43 |
|---|---|
| Airport | Los Angeles International Airport (KLAX) |
Arrival
| Time | N/A |
|---|---|
| Airport | San Diego International Airport (KSAN) |
| Time | Latitude | Longitude | Altitude | Speed | Heading |
|---|---|---|---|---|---|
| 2026-04-24 03:23 | 33.94015 | -118.39941 | 128 ft | 0 kts | 20° |
| 2026-04-24 03:35 | 33.94004 | -118.39946 | 124 ft | 2 kts | 20° |
| 2026-04-24 03:35 | 33.93989 | -118.39952 | 124 ft | 2 kts | 20° |
| 2026-04-24 03:35 | 33.93974 | -118.39959 | 123 ft | 2 kts | 20° |
| 2026-04-24 03:36 | 33.93959 | -118.39966 | 123 ft | 2 kts | 20° |
| 2026-04-24 03:36 | 33.93943 | -118.39973 | 129 ft | 2 kts | 20° |
| 2026-04-24 03:36 | 33.93940 | -118.39974 | 123 ft | 2 kts | 20° |
| 2026-04-24 03:36 | 33.93945 | -118.39972 | 130 ft | 0 kts | 20° |
| 2026-04-24 03:37 | 33.93964 | -118.39937 | 128 ft | 11 kts | 68° |
| 2026-04-24 03:37 | 33.93978 | -118.39827 | 128 ft | 17 kts | 83° |
| 2026-04-24 03:37 | 33.93994 | -118.39668 | 128 ft | 20 kts | 83° |
| 2026-04-24 03:38 | 33.94012 | -118.39491 | 124 ft | 22 kts | 82° |
| 2026-04-24 03:38 | 33.94032 | -118.39306 | 127 ft | 23 kts | 83° |
| 2026-04-24 03:38 | 33.94048 | -118.39146 | 127 ft | 0 kts | 83° |
| 2026-04-24 03:39 | 33.94050 | -118.39133 | 125 ft | 11 kts | 83° |
| 2026-04-24 03:39 | 33.94056 | -118.38988 | 126 ft | 19 kts | 85° |
| 2026-04-24 03:39 | 33.94073 | -118.38824 | 127 ft | 20 kts | 83° |
| 2026-04-24 03:39 | 33.94090 | -118.38647 | 126 ft | 22 kts | 83° |
| 2026-04-24 03:40 | 33.94108 | -118.38469 | 125 ft | 5 kts | 83° |
| 2026-04-24 03:40 | 33.94110 | -118.38459 | 123 ft | 2 kts | 83° |
| 2026-04-24 03:40 | 33.94113 | -118.38426 | 123 ft | 6 kts | 84° |
| 2026-04-24 03:40 | 33.94101 | -118.38367 | 125 ft | 8 kts | 127° |
| 2026-04-24 03:41 | 33.94062 | -118.38307 | 124 ft | 10 kts | 115° |
| 2026-04-24 03:41 | 33.94061 | -118.38218 | 128 ft | 12 kts | 83° |
| 2026-04-24 03:41 | 33.94074 | -118.38087 | 128 ft | 18 kts | 83° |
| 2026-04-24 03:41 | 33.94070 | -118.38032 | 128 ft | 0 kts | 110° |
| 2026-04-24 03:42 | 33.94062 | -118.38019 | 124 ft | 0 kts | 131° |
| 2026-04-24 03:42 | 33.94031 | -118.38005 | 124 ft | 0 kts | 170° |
| 2026-04-24 03:42 | 33.93984 | -118.38034 | 123 ft | 9 kts | 238° |
| 2026-04-24 03:42 | 33.93980 | -118.38072 | 128 ft | 0 kts | 264° |
| 2026-04-24 03:43 | 33.93980 | -118.38074 | 128 ft | 3 kts | 264° |
| 2026-04-24 03:43 | 33.93947 | -118.38398 | 127 ft | 85 kts | 263° |
| 2026-04-24 03:43 | 33.93830 | -118.39516 | 137 ft | 174 kts | 262° |
| 2026-04-24 03:43 | 33.93675 | -118.41102 | 847 ft | 204 kts | 263° |
| 2026-04-24 03:44 | 33.93523 | -118.42907 | 2006 ft | 219 kts | 265° |
| 2026-04-24 03:44 | 33.93369 | -118.44819 | 3388 ft | 221 kts | 264° |
| 2026-04-24 03:44 | 33.92909 | -118.46509 | 4809 ft | 214 kts | 237° |
| 2026-04-24 03:44 | 33.91813 | -118.47527 | 6377 ft | 190 kts | 192° |
| 2026-04-24 03:45 | 33.90549 | -118.47386 | 7490 ft | 197 kts | 158° |
| 2026-04-24 03:45 | 33.89402 | -118.46282 | 7946 ft | 228 kts | 125° |
| 2026-04-24 03:45 | 33.88807 | -118.44452 | 8677 ft | 248 kts | 101° |
| 2026-04-24 03:45 | 33.88643 | -118.42258 | 9139 ft | 277 kts | 89° |
| 2026-04-24 03:46 | 33.88805 | -118.39856 | 9774 ft | 298 kts | 81° |
| 2026-04-24 03:46 | 33.89232 | -118.37375 | 10430 ft | 315 kts | 74° |
| 2026-04-24 03:46 | 33.89681 | -118.34639 | 10470 ft | 356 kts | 87° |
| 2026-04-24 03:46 | 33.89342 | -118.31549 | 10547 ft | 393 kts | 107° |
| 2026-04-24 03:47 | 33.88097 | -118.28471 | 10534 ft | 429 kts | 125° |
| 2026-04-24 03:47 | 33.86121 | -118.25597 | 10528 ft | 461 kts | 133° |
| 2026-04-24 03:47 | 33.83871 | -118.22662 | 10527 ft | 489 kts | 134° |
| 2026-04-24 03:47 | 33.81486 | -118.19588 | 10523 ft | 512 kts | 134° |
| 2026-04-24 03:48 | 33.79867 | -118.17497 | 10513 ft | 486 kts | 134° |
| 2026-04-24 03:48 | 33.77010 | -118.13811 | 10447 ft | 440 kts | 134° |
| 2026-04-24 03:48 | 33.75070 | -118.11325 | 12163 ft | 380 kts | 135° |
| 2026-04-24 03:48 | 33.73377 | -118.09179 | 14958 ft | 331 kts | 137° |
| 2026-04-24 03:49 | 33.71886 | -118.07306 | 17062 ft | 288 kts | 139° |
| 2026-04-24 03:49 | 33.70636 | -118.05699 | 18828 ft | 241 kts | 139° |
| 2026-04-24 03:49 | 33.69553 | -118.04286 | 19785 ft | 223 kts | 140° |
| 2026-04-24 03:49 | 33.68817 | -118.03347 | 19957 ft | 233 kts | 140° |
| 2026-04-24 03:50 | 33.67594 | -118.01790 | 19533 ft | 283 kts | 139° |
| 2026-04-24 03:50 | 33.66156 | -117.99957 | 19534 ft | 312 kts | 137° |
| 2026-04-24 03:50 | 33.64650 | -117.97946 | 19758 ft | 334 kts | 136° |
| 2026-04-24 03:50 | 33.63064 | -117.95790 | 20096 ft | 353 kts | 135° |
| 2026-04-24 03:51 | 33.61425 | -117.93535 | 20498 ft | 356 kts | 135° |
| 2026-04-24 03:51 | 33.59851 | -117.91350 | 20825 ft | 333 kts | 135° |
| 2026-04-24 03:51 | 33.58401 | -117.89327 | 21087 ft | 317 kts | 135° |
| 2026-04-24 03:51 | 33.57000 | -117.87380 | 21881 ft | 302 kts | 136° |
| 2026-04-24 03:52 | 33.55612 | -117.85484 | 22541 ft | 303 kts | 137° |
| 2026-04-24 03:52 | 33.54216 | -117.83590 | 23179 ft | 303 kts | 137° |
| 2026-04-24 03:52 | 33.52875 | -117.81766 | 23360 ft | 283 kts | 137° |
| 2026-04-24 03:52 | 33.51522 | -117.79932 | 22942 ft | 310 kts | 137° |
| 2026-04-24 03:53 | 33.50049 | -117.77864 | 22743 ft | 340 kts | 134° |
| 2026-04-24 03:53 | 33.48544 | -117.75577 | 22573 ft | 341 kts | 131° |
| 2026-04-24 03:53 | 33.47140 | -117.73296 | 22391 ft | 338 kts | 133° |
| 2026-04-24 03:53 | 33.45654 | -117.71186 | 22160 ft | 334 kts | 137° |
| 2026-04-24 03:54 | 33.44069 | -117.69155 | 21830 ft | 333 kts | 139° |
| 2026-04-24 03:54 | 33.42443 | -117.67153 | 21506 ft | 332 kts | 139° |
| 2026-04-24 03:54 | 33.40847 | -117.65159 | 21187 ft | 331 kts | 138° |
| 2026-04-24 03:54 | 33.39276 | -117.63147 | 20873 ft | 330 kts | 138° |
| 2026-04-24 03:55 | 33.37702 | -117.61186 | 20507 ft | 331 kts | 140° |
| 2026-04-24 03:55 | 33.36042 | -117.59271 | 20077 ft | 333 kts | 142° |
| 2026-04-24 03:55 | 33.34301 | -117.57419 | 19603 ft | 337 kts | 144° |
| 2026-04-24 03:55 | 33.32489 | -117.55621 | 19149 ft | 340 kts | 146° |
| 2026-04-24 03:56 | 33.30612 | -117.53885 | 18722 ft | 342 kts | 148° |
| 2026-04-24 03:56 | 33.28678 | -117.52212 | 18333 ft | 343 kts | 148° |
| 2026-04-24 03:56 | 33.26987 | -117.50187 | 18071 ft | 346 kts | 129° |
| 2026-04-24 03:56 | 33.25696 | -117.47743 | 17427 ft | 353 kts | 125° |
| 2026-04-24 03:57 | 33.24347 | -117.45271 | 16615 ft | 366 kts | 128° |
| 2026-04-24 03:57 | 33.22745 | -117.42810 | 15812 ft | 374 kts | 134° |
| 2026-04-24 03:57 | 33.21088 | -117.40449 | 15748 ft | 362 kts | 133° |
| 2026-04-24 03:57 | 33.19505 | -117.38089 | 15201 ft | 365 kts | 131° |
| 2026-04-24 03:58 | 33.17883 | -117.35662 | 14720 ft | 366 kts | 131° |
| 2026-04-24 03:58 | 33.16347 | -117.33386 | 14281 ft | 367 kts | 132° |
| 2026-04-24 03:58 | 33.14610 | -117.30844 | 13791 ft | 367 kts | 132° |
| 2026-04-24 03:58 | 33.12991 | -117.28507 | 13273 ft | 366 kts | 132° |
| 2026-04-24 03:59 | 33.11340 | -117.26150 | 12741 ft | 363 kts | 133° |
| 2026-04-24 03:59 | 33.09731 | -117.23877 | 12103 ft | 365 kts | 133° |
| 2026-04-24 03:59 | 33.08050 | -117.21527 | 11240 ft | 374 kts | 133° |
| 2026-04-24 03:59 | 33.06326 | -117.19138 | 10365 ft | 385 kts | 133° |
| 2026-04-24 04:00 | 33.04590 | -117.16746 | 10048 ft | 375 kts | 133° |
| 2026-04-24 04:00 | 33.02935 | -117.14467 | 9933 ft | 360 kts | 133° |
| 2026-04-24 04:00 | 33.01316 | -117.12236 | 9948 ft | 340 kts | 133° |
| 2026-04-24 04:00 | 32.99807 | -117.10159 | 9969 ft | 322 kts | 133° |
| 2026-04-24 04:01 | 32.98393 | -117.08216 | 9977 ft | 304 kts | 134° |
| 2026-04-24 04:01 | 32.97044 | -117.06366 | 9983 ft | 286 kts | 134° |
| 2026-04-24 04:01 | 32.95776 | -117.04632 | 9996 ft | 268 kts | 134° |